Time;durP1;ratioP1;P1;durP2;ratioP2;P2;SDS_P1;SDS_P2;PMS_P1;PMS_P2;Temp;Humidity;BMP_temperature;BMP_pressure;BME280_temperature;BME280_humidity;BME280_pressure;Samples;Min_cycle;Max_cycle;Signal;HPM_P1;HPM_P2
2022/03/26 00:01:51;;;;;;;7.22;1.73;;;12.80;90.50;;;;;;5055026;28;20392;-74
2022/03/26 00:04:17;;;;;;;1.88;1.77;;;12.70;90.50;;;;;;5055007;28;20020;-74
2022/03/26 00:06:43;;;;;;;3.25;2.15;;;12.70;90.60;;;;;;5055080;28;20492;-82
2022/03/26 00:09:09;;;;;;;0.85;0.85;;;12.60;90.90;;;;;;5054876;28;20028;-74
2022/03/26 00:11:34;;;;;;;3.10;1.63;;;12.50;91.20;;;;;;5039620;28;20476;-74
2022/03/26 00:14:00;;;;;;;1.25;1.15;;;12.30;91.10;;;;;;5033515;28;20594;-73
2022/03/26 00:16:28;;;;;;;2.90;0.75;;;12.30;91.30;;;;;;5034602;28;20053;-74
2022/03/26 00:18:54;;;;;;;1.20;1.20;;;12.30;91.40;;;;;;5034579;28;20029;-74
2022/03/26 00:21:21;;;;;;;6.13;2.22;;;12.30;91.50;;;;;;5034882;28;20025;-83
2022/03/26 00:23:46;;;;;;;10.32;2.67;;;12.30;91.50;;;;;;5034866;28;20026;-82
2022/03/26 00:26:12;;;;;;;2.03;1.63;;;12.20;91.30;;;;;;5034804;28;20037;-74
2022/03/26 00:28:39;;;;;;;20.35;3.67;;;12.20;91.30;;;;;;5056272;28;20006;-84
2022/03/26 00:31:05;;;;;;;6.00;3.47;;;12.20;91.50;;;;;;5055701;28;20047;-72
2022/03/26 00:33:32;;;;;;;11.75;4.57;;;12.10;91.50;;;;;;5036601;28;20030;-74
2022/03/26 00:35:58;;;;;;;1.30;1.23;;;12.10;91.40;;;;;;5034682;28;20428;-81
2022/03/26 00:38:23;;;;;;;1.33;1.25;;;12.00;91.70;;;;;;5051028;28;20025;-74
2022/03/26 00:40:49;;;;;;;4.65;3.40;;;12.00;92.00;;;;;;5053937;28;20032;-74
2022/03/26 00:43:15;;;;;;;6.15;2.13;;;11.80;92.20;;;;;;5053965;28;20144;-83
2022/03/26 00:45:42;;;;;;;7.43;1.92;;;11.70;92.60;;;;;;5054402;28;20071;-83
2022/03/26 00:48:08;;;;;;;7.20;2.97;;;11.60;92.80;;;;;;5054226;28;20021;-82
2022/03/26 00:50:34;;;;;;;1.02;0.65;;;11.50;92.80;;;;;;5054473;28;20108;-74
2022/03/26 00:53:00;;;;;;;3.60;2.00;;;11.40;93.00;;;;;;5054184;28;20388;-74
2022/03/26 00:55:25;;;;;;;8.18;3.65;;;11.40;93.20;;;;;;5052584;28;20557;-73
2022/03/26 00:57:51;;;;;;;1.65;1.55;;;11.30;93.00;;;;;;5054091;28;20558;-81
2022/03/26 01:00:17;;;;;;;1.77;1.67;;;11.30;93.10;;;;;;5060048;28;20076;-82
2022/03/26 01:02:43;;;;;;;1.83;1.60;;;11.20;93.20;;;;;;5080114;28;20017;-82
2022/03/26 01:05:10;;;;;;;7.18;4.13;;;11.20;93.40;;;;;;5067228;28;20040;-73
2022/03/26 01:07:36;;;;;;;2.03;1.83;;;11.20;93.50;;;;;;5053364;28;20398;-74
2022/03/26 01:10:04;;;;;;;1.60;1.50;;;11.10;93.50;;;;;;5053345;28;20499;-81
2022/03/26 01:12:30;;;;;;;5.13;3.28;;;11.10;93.50;;;;;;5053143;28;20029;-83
2022/03/26 01:14:56;;;;;;;10.55;5.07;;;11.10;93.40;;;;;;5053918;28;20025;-73
2022/03/26 01:17:22;;;;;;;0.30;0.30;;;11.10;93.30;;;;;;5053192;28;20549;-73
2022/03/26 01:19:49;;;;;;;4.13;3.40;;;11.10;93.50;;;;;;5053467;28;20021;-74
2022/03/26 01:22:15;;;;;;;2.45;1.77;;;11.10;93.70;;;;;;5053589;28;20029;-73
2022/03/26 01:24:41;;;;;;;4.65;3.30;;;11.10;93.30;;;;;;5053520;28;20021;-74
2022/03/26 01:27:07;;;;;;;20.23;3.75;;;11.10;93.40;;;;;;5053807;28;20021;-82
2022/03/26 01:29:33;;;;;;;3.33;2.88;;;11.20;93.20;;;;;;5053575;28;20021;-74
2022/03/26 01:31:59;;;;;;;5.50;2.35;;;11.20;93.20;;;;;;5053255;28;20052;-74
2022/03/26 01:34:27;;;;;;;5.90;3.75;;;11.20;93.10;;;;;;5053858;28;20087;-74
2022/03/26 01:36:53;;;;;;;1.10;0.95;;;11.20;93.20;;;;;;5053575;28;20021;-74
2022/03/26 01:39:20;;;;;;;5.80;4.18;;;11.20;93.10;;;;;;5057674;28;20032;-82
2022/03/26 01:41:47;;;;;;;3.75;3.22;;;11.20;93.20;;;;;;5053759;28;20510;-81
2022/03/26 01:44:13;;;;;;;5.43;2.60;;;11.20;93.40;;;;;;5053486;28;20044;-73
2022/03/26 01:46:50;;;;;;;7.32;3.20;;;11.10;93.50;;;;;;5053586;28;20029;-74
2022/03/26 01:49:17;;;;;;;2.75;2.55;;;11.10;93.60;;;;;;5041057;28;20064;-73
2022/03/26 01:51:43;;;;;;;5.63;3.60;;;11.00;93.70;;;;;;5042009;28;20051;-74
2022/03/26 01:54:11;;;;;;;7.07;4.50;;;10.90;93.90;;;;;;5053049;28;20056;-82
2022/03/26 01:56:38;;;;;;;4.32;3.50;;;10.80;94.10;;;;;;5053076;28;20029;-83
2022/03/26 01:59:06;;;;;;;5.85;2.95;;;10.80;94.10;;;;;;5053135;28;20016;-74
2022/03/26 02:01:34;;;;;;;4.07;2.65;;;10.70;94.30;;;;;;5054652;28;20017;-73
2022/03/26 02:04:00;;;;;;;3.55;2.40;;;10.70;94.30;;;;;;5053158;28;20099;-74
2022/03/26 02:06:34;;;;;;;5.70;3.45;;;10.60;94.40;;;;;;5052962;28;20029;-74
2022/03/26 02:09:03;;;;;;;;;;;10.60;94.50;;;;;;5053409;28;20120;-73
2022/03/26 02:11:33;;;;;;;2.00;1.05;;;10.60;94.50;;;;;;5052931;28;19994;-82
2022/03/26 02:13:59;;;;;;;2.80;2.38;;;10.60;94.50;;;;;;5052413;28;20396;-74
2022/03/26 02:16:26;;;;;;;3.25;2.58;;;10.60;94.50;;;;;;5051552;28;20028;-73
2022/03/26 02:18:53;;;;;;;3.28;1.92;;;10.50;94.50;;;;;;5052223;28;20021;-82
2022/03/26 02:21:20;;;;;;;2.50;2.25;;;10.50;94.70;;;;;;5052356;28;20025;-73
2022/03/26 02:23:47;;;;;;;7.07;2.67;;;10.40;94.80;;;;;;5053138;28;20013;-74
2022/03/26 02:26:21;;;;;;;5.15;2.88;;;10.40;95.10;;;;;;5052608;28;20029;-74
2022/03/26 02:28:49;;;;;;;5.65;2.30;;;10.30;95.10;;;;;;5052660;28;20023;-83
2022/03/26 02:31:15;;;;;;;3.00;2.80;;;10.20;95.20;;;;;;5052669;28;20028;-82
2022/03/26 02:33:42;;;;;;;2.80;2.53;;;10.20;95.30;;;;;;5053535;28;20037;-73
2022/03/26 02:36:09;;;;;;;2.97;1.95;;;10.10;95.40;;;;;;5054473;28;20112;-82
2022/03/26 02:38:36;;;;;;;4.53;1.98;;;10.10;95.60;;;;;;5052749;28;20020;-73
2022/03/26 02:41:02;;;;;;;2.13;1.95;;;10.00;95.70;;;;;;5052635;28;20052;-73
2022/03/26 02:43:28;;;;;;;7.15;1.90;;;10.00;95.80;;;;;;5052032;28;20065;-74
2022/03/26 02:45:53;;;;;;;11.50;2.80;;;10.00;95.90;;;;;;5052482;28;20032;-82
2022/03/26 02:48:19;;;;;;;2.42;2.25;;;10.00;96.00;;;;;;5048200;28;20100;-74
2022/03/26 02:50:45;;;;;;;12.88;4.07;;;9.90;96.10;;;;;;5033734;28;20029;-74
2022/03/26 02:53:12;;;;;;;21.23;3.90;;;9.90;96.10;;;;;;5052403;28;20104;-73
2022/03/26 02:55:38;;;;;;;9.05;2.83;;;9.90;96.20;;;;;;5052240;28;20032;-74
2022/03/26 02:58:06;;;;;;;2.72;2.53;;;9.90;96.10;;;;;;5052322;28;20460;-82
2022/03/26 03:00:32;;;;;;;2.15;2.05;;;9.90;96.30;;;;;;5052525;28;20025;-82
2022/03/26 03:02:58;;;;;;;3.92;3.25;;;9.80;96.30;;;;;;5052676;28;20392;-81
2022/03/26 03:05:24;;;;;;;2.25;2.15;;;9.80;96.30;;;;;;5052399;28;20060;-82
2022/03/26 03:07:50;;;;;;;3.28;2.35;;;9.80;96.40;;;;;;5052382;28;20057;-74
2022/03/26 03:10:17;;;;;;;3.40;2.50;;;9.80;96.40;;;;;;5051977;28;20033;-82
2022/03/26 03:12:44;;;;;;;2.53;2.33;;;9.80;96.50;;;;;;5052078;28;20447;-81
2022/03/26 03:15:13;;;;;;;6.65;2.53;;;9.80;96.50;;;;;;5052352;28;20029;-73
2022/03/26 03:17:40;;;;;;;3.97;2.58;;;9.70;96.40;;;;;;5051957;28;20029;-74
2022/03/26 03:20:07;;;;;;;2.78;2.60;;;9.70;96.30;;;;;;5052174;28;20083;-81
2022/03/26 03:22:33;;;;;;;10.75;5.03;;;9.80;96.30;;;;;;5052205;28;20114;-82
2022/03/26 03:24:59;;;;;;;6.38;3.08;;;9.70;96.40;;;;;;5052018;28;20096;-82
2022/03/26 03:27:25;;;;;;;7.13;3.13;;;9.70;96.40;;;;;;5052213;28;20029;-82
2022/03/26 03:29:51;;;;;;;3.13;2.35;;;9.70;96.50;;;;;;5070528;28;20036;-73
2022/03/26 03:32:17;;;;;;;2.15;1.70;;;9.70;96.60;;;;;;5060418;28;20078;-74
2022/03/26 03:34:43;;;;;;;2.58;2.00;;;9.70;96.50;;;;;;5056410;28;20473;-73
2022/03/26 03:37:09;;;;;;;4.40;4.00;;;9.70;96.50;;;;;;5055230;28;20033;-82
2022/03/26 03:39:34;;;;;;;3.60;3.30;;;9.70;96.40;;;;;;5055540;28;20098;-74
2022/03/26 03:42:00;;;;;;;1.95;1.85;;;9.80;96.30;;;;;;5055496;28;20056;-73
2022/03/26 03:44:26;;;;;;;6.72;4.00;;;9.80;96.40;;;;;;5055040;28;20049;-73
2022/03/26 03:46:52;;;;;;;2.78;2.58;;;9.80;96.20;;;;;;5055145;28;20496;-73
2022/03/26 03:49:19;;;;;;;3.88;2.60;;;9.80;96.30;;;;;;5043063;28;20053;-83
2022/03/26 03:51:45;;;;;;;9.05;4.43;;;9.80;96.30;;;;;;5043499;28;20032;-73
2022/03/26 03:54:11;;;;;;;11.60;4.50;;;9.80;96.50;;;;;;5064832;28;20061;-82
2022/03/26 03:56:38;;;;;;;7.32;1.77;;;9.70;96.50;;;;;;5054932;28;20116;-82
2022/03/26 03:59:03;;;;;;;4.82;3.80;;;9.70;96.60;;;;;;5053793;28;20025;-74
2022/03/26 04:01:29;;;;;;;1.45;1.42;;;9.60;96.60;;;;;;5055553;28;20500;-82
2022/03/26 04:03:55;;;;;;;6.68;2.70;;;9.60;96.80;;;;;;5055091;28;20037;-73
2022/03/26 04:06:20;;;;;;;13.45;2.47;;;9.50;96.80;;;;;;5055398;28;20024;-81
2022/03/26 04:08:46;;;;;;;8.55;2.42;;;9.50;96.70;;;;;;5055312;28;20029;-77
2022/03/26 04:11:12;;;;;;;6.32;2.65;;;9.50;96.80;;;;;;5054864;28;20096;-73
2022/03/26 04:13:38;;;;;;;4.78;4.28;;;9.50;97.10;;;;;;5053827;28;20036;-81
2022/03/26 04:16:05;;;;;;;7.78;4.68;;;9.40;97.00;;;;;;5054877;28;20021;-82
2022/03/26 04:18:31;;;;;;;7.80;3.13;;;9.40;97.10;;;;;;5054855;28;20071;-74
2022/03/26 04:20:57;;;;;;;3.30;2.83;;;9.40;97.20;;;;;;5055091;28;20489;-73
2022/03/26 04:23:23;;;;;;;3.47;2.47;;;9.40;97.30;;;;;;5054933;28;20155;-73
2022/03/26 04:25:49;;;;;;;3.15;2.30;;;9.40;97.20;;;;;;5054388;28;20135;-74
2022/03/26 04:28:14;;;;;;;6.70;3.75;;;9.40;97.20;;;;;;5070105;28;20039;-81
2022/03/26 04:30:40;;;;;;;9.57;4.57;;;9.40;97.20;;;;;;5069097;28;20116;-74
2022/03/26 04:33:06;;;;;;;2.40;2.15;;;9.40;97.10;;;;;;5054631;28;20104;-74
2022/03/26 04:35:33;;;;;;;2.47;2.33;;;9.40;97.30;;;;;;5054806;28;20033;-82
2022/03/26 04:37:58;;;;;;;9.40;4.97;;;9.40;97.30;;;;;;5054365;28;20439;-74
2022/03/26 04:40:25;;;;;;;5.28;2.03;;;9.40;97.60;;;;;;5054476;28;20083;-82
2022/03/26 04:42:51;;;;;;;3.22;2.85;;;9.40;97.30;;;;;;5053581;28;20586;-83
2022/03/26 04:45:17;;;;;;;4.68;3.13;;;9.40;97.40;;;;;;5054074;28;20025;-73
2022/03/26 04:47:43;;;;;;;7.72;3.08;;;9.40;97.30;;;;;;5053876;28;20539;-74
2022/03/26 04:50:10;;;;;;;4.20;2.88;;;9.40;97.60;;;;;;5053883;28;20035;-74
2022/03/26 04:52:36;;;;;;;2.03;1.92;;;9.30;97.60;;;;;;5054203;28;20063;-83
2022/03/26 04:55:04;;;;;;;1.45;1.35;;;9.30;97.70;;;;;;5053973;28;20021;-74
2022/03/26 04:57:29;;;;;;;6.45;2.95;;;9.30;97.80;;;;;;5054271;28;20040;-74
2022/03/26 04:59:55;;;;;;;3.05;2.55;;;9.20;97.90;;;;;;5055775;28;20424;-82
2022/03/26 05:02:21;;;;;;;2.63;2.22;;;9.20;98.10;;;;;;5054621;28;20025;-82
2022/03/26 05:04:47;;;;;;;8.35;2.78;;;9.10;98.20;;;;;;5054428;28;20025;-73
2022/03/26 05:09:56;;;;;;;2.38;2.17;;;9.10;98.20;;;;;;5053202;28;20036;-73
2022/03/26 05:12:22;;;;;;;7.05;2.58;;;9.00;98.50;;;;;;5053887;28;20029;-82
2022/03/26 05:14:48;;;;;;;2.80;2.60;;;9.00;98.70;;;;;;5054045;28;20024;-73
2022/03/26 05:17:14;;;;;;;4.50;2.33;;;9.00;98.70;;;;;;5053769;28;20040;-74
2022/03/26 05:19:39;;;;;;;7.63;3.78;;;8.90;98.80;;;;;;5053795;28;20029;-73
2022/03/26 05:22:05;;;;;;;5.60;4.47;;;8.90;98.80;;;;;;5053429;28;20025;-74
2022/03/26 05:24:33;;;;;;;2.70;2.55;;;8.90;98.70;;;;;;5053067;28;20028;-74
2022/03/26 05:26:59;;;;;;;4.00;3.17;;;8.80;98.80;;;;;;5034019;28;20445;-82
2022/03/26 05:29:24;;;;;;;6.50;2.17;;;8.80;99.10;;;;;;5035512;28;20030;-82
2022/03/26 05:31:51;;;;;;;3.13;2.15;;;8.70;99.20;;;;;;5033636;28;20025;-81
2022/03/26 05:34:17;;;;;;;3.67;2.95;;;8.70;99.30;;;;;;5033740;28;20028;-82
2022/03/26 05:36:42;;;;;;;12.82;5.22;;;8.60;99.20;;;;;;5034935;28;20037;-82
2022/03/26 05:39:08;;;;;;;7.65;4.72;;;8.60;99.40;;;;;;5052198;28;20025;-73
2022/03/26 05:41:34;;;;;;;11.05;2.05;;;8.60;99.30;;;;;;5053140;28;20021;-82
2022/03/26 05:44:00;;;;;;;3.33;2.47;;;8.60;99.50;;;;;;5052668;28;20045;-81
2022/03/26 05:46:26;;;;;;;3.30;3.00;;;8.60;99.50;;;;;;5053418;28;20404;-82
2022/03/26 05:48:52;;;;;;;7.97;5.03;;;8.60;99.60;;;;;;5053197;28;20029;-81
2022/03/26 05:51:17;;;;;;;8.27;1.45;;;8.60;99.50;;;;;;5053032;28;20104;-82
2022/03/26 05:53:44;;;;;;;5.45;3.35;;;8.60;99.60;;;;;;5052660;28;20032;-82
2022/03/26 05:56:10;;;;;;;8.63;3.15;;;8.60;99.40;;;;;;5051541;28;20029;-82
2022/03/26 05:58:36;;;;;;;2.22;2.13;;;8.60;99.40;;;;;;5052478;28;20036;-73
2022/03/26 06:01:01;;;;;;;7.03;2.75;;;8.60;99.40;;;;;;5052938;28;20032;-81
2022/03/26 06:03:27;;;;;;;2.92;2.65;;;8.60;99.30;;;;;;5056056;28;20031;-73
2022/03/26 06:05:53;;;;;;;2.20;2.08;;;8.60;99.40;;;;;;5053054;28;20071;-81
2022/03/26 06:08:19;;;;;;;2.35;2.17;;;8.60;99.40;;;;;;5053069;28;20468;-82
2022/03/26 06:10:44;;;;;;;6.55;4.05;;;8.60;99.40;;;;;;5052793;28;20056;-73
2022/03/26 06:13:10;;;;;;;6.50;3.60;;;8.60;99.50;;;;;;5052867;28;20029;-74
2022/03/26 06:15:36;;;;;;;2.03;1.70;;;8.60;99.50;;;;;;5051783;28;20064;-81
2022/03/26 06:18:05;;;;;;;1.42;1.40;;;8.50;99.50;;;;;;5052272;28;20052;-74
2022/03/26 06:20:31;;;;;;;10.20;4.07;;;8.50;99.50;;;;;;5053075;28;20021;-73
2022/03/26 06:22:56;;;;;;;2.40;2.28;;;8.60;99.40;;;;;;5053124;28;20086;-73
2022/03/26 06:25:22;;;;;;;14.25;6.10;;;8.60;99.40;;;;;;5052517;28;20017;-82
2022/03/26 06:27:48;;;;;;;3.33;3.08;;;8.70;99.40;;;;;;5053234;28;20033;-82
2022/03/26 06:30:15;;;;;;;4.85;3.33;;;8.70;99.40;;;;;;5056479;28;20029;-73
2022/03/26 06:32:41;;;;;;;5.80;3.45;;;8.70;99.40;;;;;;5051958;28;20033;-82
2022/03/26 06:35:07;;;;;;;6.95;3.70;;;8.70;99.40;;;;;;5052567;28;20055;-74
2022/03/26 06:37:33;;;;;;;7.18;3.80;;;8.70;99.40;;;;;;5041984;28;20431;-73
2022/03/26 06:39:58;;;;;;;1.63;1.52;;;8.70;99.40;;;;;;5052181;28;20078;-81
2022/03/26 06:42:25;;;;;;;7.30;2.88;;;8.70;99.70;;;;;;5052697;28;20115;-73
2022/03/26 06:44:52;;;;;;;3.80;1.48;;;8.60;99.90;;;;;;5051964;28;20072;-74
2022/03/26 06:47:18;;;;;;;6.85;2.80;;;8.60;99.90;;;;;;5052782;28;20053;-74
2022/03/26 06:49:43;;;;;;;10.57;3.10;;;8.60;99.90;;;;;;5044738;28;20127;-74
2022/03/26 06:52:09;;;;;;;5.60;4.65;;;8.60;99.90;;;;;;5044812;28;20031;-81
2022/03/26 06:54:35;;;;;;;0.98;0.98;;;8.60;99.90;;;;;;5052259;28;20534;-79
2022/03/26 06:57:00;;;;;;;6.30;3.28;;;8.70;99.90;;;;;;5052762;28;20033;-74
2022/03/26 06:59:26;;;;;;;9.07;3.95;;;8.80;99.90;;;;;;5052089;28;20079;-74
2022/03/26 07:01:52;;;;;;;12.88;4.68;;;8.90;99.90;;;;;;5060299;28;20029;-81
2022/03/26 07:04:17;;;;;;;10.82;2.58;;;9.00;99.90;;;;;;5052612;28;20029;-74
2022/03/26 07:06:43;;;;;;;2.33;2.17;;;9.10;99.90;;;;;;5054931;28;20025;-82
2022/03/26 07:09:09;;;;;;;5.82;3.65;;;9.20;99.90;;;;;;5056064;28;20025;-74
2022/03/26 07:11:35;;;;;;;3.25;1.75;;;9.20;99.90;;;;;;5056218;28;20025;-74
2022/03/26 07:14:01;;;;;;;7.15;3.97;;;9.30;99.90;;;;;;5055453;28;20102;-74
2022/03/26 07:16:26;;;;;;;8.77;2.72;;;9.40;99.90;;;;;;5056303;28;20074;-82
2022/03/26 07:18:52;;;;;;;3.25;2.67;;;9.40;99.90;;;;;;5055912;28;20028;-82
2022/03/26 07:21:18;;;;;;;6.70;1.63;;;9.50;99.90;;;;;;5056220;28;20031;-74
2022/03/26 07:23:43;;;;;;;5.82;4.22;;;9.60;99.90;;;;;;5056108;28;20031;-74
2022/03/26 07:26:09;;;;;;;5.93;2.42;;;9.70;99.80;;;;;;5055583;28;20503;-82
2022/03/26 07:28:35;;;;;;;5.38;1.35;;;9.80;99.90;;;;;;5055970;28;20021;-74
2022/03/26 07:31:01;;;;;;;1.73;1.63;;;9.80;99.80;;;;;;5057272;28;20017;-72
2022/03/26 07:33:27;;;;;;;8.48;5.55;;;9.90;99.30;;;;;;5059983;28;20036;-73
2022/03/26 07:35:53;;;;;;;10.68;1.88;;;10.10;99.10;;;;;;5055839;28;20062;-74
2022/03/26 07:38:19;;;;;;;8.20;3.03;;;10.20;98.80;;;;;;5055668;28;20029;-74
2022/03/26 07:40:44;;;;;;;4.30;3.28;;;10.40;98.30;;;;;;5055841;28;20442;-74
2022/03/26 07:43:10;;;;;;;5.68;2.88;;;10.60;98.30;;;;;;5054997;28;20128;-82
2022/03/26 07:45:36;;;;;;;7.90;3.58;;;10.80;97.70;;;;;;5055051;28;20029;-76
2022/03/26 07:48:02;;;;;;;12.40;3.95;;;10.90;98.00;;;;;;5055556;28;20051;-74
2022/03/26 07:50:28;;;;;;;4.88;3.60;;;11.10;98.10;;;;;;5041722;28;20104;-74
2022/03/26 07:52:54;;;;;;;6.22;2.88;;;11.30;98.00;;;;;;5053212;28;20436;-74
2022/03/26 07:55:20;;;;;;;9.63;2.67;;;11.50;97.80;;;;;;5055104;28;20025;-82
2022/03/26 07:57:46;;;;;;;7.93;2.83;;;11.70;97.40;;;;;;5055518;28;20384;-74
2022/03/26 08:00:12;;;;;;;8.43;2.25;;;12.00;96.90;;;;;;5054711;28;20139;-74
2022/03/26 08:02:38;;;;;;;4.53;3.13;;;12.70;96.30;;;;;;5055006;28;20017;-74
2022/03/26 08:05:05;;;;;;;13.45;3.20;;;14.80;93.40;;;;;;5055545;28;20014;-82
2022/03/26 08:07:31;;;;;;;8.05;2.80;;;16.20;91.50;;;;;;5056193;28;20025;-74
2022/03/26 08:09:57;;;;;;;11.82;4.35;;;17.60;89.80;;;;;;5063960;28;20029;-80
2022/03/26 08:12:22;;;;;;;13.55;3.97;;;18.50;87.50;;;;;;5070544;28;20017;-83
2022/03/26 08:14:48;;;;;;;9.32;3.17;;;18.70;86.10;;;;;;5055112;28;20096;-75
2022/03/26 08:17:14;;;;;;;15.60;3.63;;;19.00;84.60;;;;;;5054336;28;20044;-75
2022/03/26 08:19:40;;;;;;;10.13;3.15;;;19.20;85.30;;;;;;5054771;28;20029;-83
2022/03/26 08:22:06;;;;;;;12.70;4.60;;;19.20;84.20;;;;;;5055317;28;20102;-77
2022/03/26 08:24:32;;;;;;;11.23;4.72;;;19.40;84.30;;;;;;5054836;28;20041;-75
2022/03/26 08:26:58;;;;;;;13.57;4.63;;;19.50;83.10;;;;;;5054903;28;20048;-75
2022/03/26 08:29:24;;;;;;;10.27;4.38;;;20.00;82.70;;;;;;5054656;28;20108;-75
2022/03/26 08:31:50;;;;;;;18.10;4.57;;;20.00;82.60;;;;;;5054928;28;20029;-83
2022/03/26 08:34:15;;;;;;;13.82;5.80;;;20.10;81.70;;;;;;5055075;28;20029;-82
2022/03/26 08:36:41;;;;;;;12.55;3.50;;;19.60;82.20;;;;;;5054630;28;20542;-75
2022/03/26 08:39:07;;;;;;;9.63;3.47;;;17.80;85.10;;;;;;5054580;28;20021;-76
2022/03/26 08:41:33;;;;;;;19.15;5.88;;;17.60;86.90;;;;;;5053215;28;20561;-83
2022/03/26 08:43:59;;;;;;;7.18;3.75;;;18.50;86.00;;;;;;5054300;28;20072;-75
2022/03/26 08:46:25;;;;;;;9.30;3.60;;;19.60;83.40;;;;;;5071149;28;20083;-83
2022/03/26 08:48:51;;;;;;;10.88;4.10;;;20.30;82.10;;;;;;5054018;28;20021;-83
2022/03/26 08:51:17;;;;;;;15.27;4.65;;;21.70;80.10;;;;;;5053717;28;20439;-76
2022/03/26 08:53:43;;;;;;;12.68;4.38;;;21.60;77.90;;;;;;5054070;28;20028;-76
2022/03/26 08:56:09;;;;;;;18.83;5.53;;;22.10;78.00;;;;;;5054062;28;20362;-76
2022/03/26 08:58:36;;;;;;;6.50;3.83;;;22.50;77.80;;;;;;5054315;28;20024;-76
2022/03/26 09:01:03;;;;;;;13.05;4.72;;;23.40;76.40;;;;;;5054172;28;20028;-75
2022/03/26 09:03:29;;;;;;;16.90;5.57;;;23.20;76.00;;;;;;5054101;28;20024;-83
2022/03/26 09:05:55;;;;;;;11.43;5.60;;;23.60;75.30;;;;;;5054426;28;20021;-82
2022/03/26 09:08:21;;;;;;;12.68;4.95;;;23.40;74.70;;;;;;5054130;28;20041;-76
2022/03/26 09:10:47;;;;;;;13.50;3.85;;;23.30;75.00;;;;;;5053450;28;20025;-76
2022/03/26 09:13:13;;;;;;;14.68;5.50;;;23.40;75.40;;;;;;5053897;28;20033;-76
2022/03/26 09:15:39;;;;;;;14.50;4.43;;;23.50;74.70;;;;;;5076146;28;20020;-76
2022/03/26 09:18:05;;;;;;;16.90;3.90;;;23.50;75.00;;;;;;5057986;28;20037;-84
2022/03/26 09:20:31;;;;;;;11.70;4.55;;;24.00;74.30;;;;;;5054262;28;20032;-76
2022/03/26 09:22:57;;;;;;;16.42;5.57;;;23.80;74.30;;;;;;5053997;28;20479;-82
2022/03/26 09:25:23;;;;;;;11.18;3.97;;;23.70;73.40;;;;;;5053727;28;20032;-76
2022/03/26 09:27:49;;;;;;;9.98;4.28;;;23.90;74.60;;;;;;5036882;28;20033;-76
2022/03/26 09:30:15;;;;;;;14.63;4.63;;;24.50;74.30;;;;;;5033630;28;20520;-76
2022/03/26 09:32:44;;;;;;;8.45;3.58;;;24.30;73.00;;;;;;5033974;28;20079;-76
2022/03/26 09:35:10;;;;;;;15.15;5.43;;;24.80;73.50;;;;;;5034331;28;20021;-83
2022/03/26 09:37:35;;;;;;;11.20;5.20;;;25.00;73.00;;;;;;5043280;28;20032;-83
2022/03/26 09:40:04;;;;;;;9.82;3.17;;;24.40;73.10;;;;;;5053535;28;20479;-81
2022/03/26 09:42:31;;;;;;;12.65;5.38;;;24.80;72.70;;;;;;5063638;28;20047;-82
2022/03/26 09:44:58;;;;;;;10.65;4.60;;;25.10;73.30;;;;;;5059795;28;20064;-77
2022/03/26 09:47:24;;;;;;;15.98;5.53;;;25.10;72.70;;;;;;5071694;28;20033;-77
2022/03/26 09:49:49;;;;;;;19.75;5.40;;;25.10;72.80;;;;;;5053614;28;20032;-81
2022/03/26 09:52:15;;;;;;;15.15;4.07;;;24.90;72.70;;;;;;5053066;28;20051;-77
2022/03/26 09:54:41;;;;;;;10.65;3.83;;;24.10;73.60;;;;;;5052730;28;20035;-76
2022/03/26 09:57:07;;;;;;;8.80;4.28;;;22.80;75.30;;;;;;5053746;28;20036;-80
2022/03/26 09:59:33;;;;;;;12.63;4.43;;;21.50;76.90;;;;;;5053271;28;20093;-76
2022/03/26 10:01:59;;;;;;;15.45;4.45;;;21.30;78.70;;;;;;5052372;28;20108;-80
2022/03/26 10:04:27;;;;;;;15.23;4.45;;;20.80;79.00;;;;;;5053411;28;20021;-76
2022/03/26 10:06:58;;;;;;;14.77;5.25;;;20.70;78.60;;;;;;5056604;28;20060;-76
2022/03/26 10:09:36;;;;;;;11.57;3.53;;;20.80;79.60;;;;;;5072441;28;20385;-76
2022/03/26 10:12:10;;;;;;;4.45;3.15;;;20.70;80.10;;;;;;5053089;28;20017;-76
2022/03/26 10:14:47;;;;;;;14.50;3.17;;;20.70;79.00;;;;;;5052913;28;20095;-79
2022/03/26 10:17:14;;;;;;;7.43;4.78;;;20.80;79.70;;;;;;5053044;28;20040;-76
2022/03/26 10:20:04;;;;;;;11.00;4.53;;;20.50;80.10;;;;;;5052675;28;20082;-75
2022/03/26 10:22:40;;;;;;;28.33;3.90;;;20.70;82.00;;;;;;5052965;28;20028;-76
2022/03/26 10:25:14;;;;;;;8.88;3.33;;;20.70;80.80;;;;;;5052708;28;20558;-82
2022/03/26 10:27:45;;;;;;;12.10;3.33;;;20.60;80.30;;;;;;5052328;28;20111;-81
2022/03/26 10:30:14;;;;;;;12.02;4.55;;;20.60;80.70;;;;;;5052722;28;20032;-75
2022/03/26 10:32:43;;;;;;;10.75;4.32;;;20.30;81.10;;;;;;5053320;28;20025;-76
2022/03/26 10:35:09;;;;;;;9.30;3.47;;;20.30;82.70;;;;;;5061002;28;20031;-77
2022/03/26 10:37:47;;;;;;;16.88;4.05;;;20.50;82.70;;;;;;5051827;28;20485;-76
2022/03/26 10:40:24;;;;;;;10.43;3.60;;;20.50;81.60;;;;;;5052897;28;20029;-83
2022/03/26 10:43:08;;;;;;;13.70;4.22;;;20.90;82.10;;;;;;5057030;28;20049;-84
2022/03/26 10:45:44;;;;;;;11.10;4.10;;;20.80;81.10;;;;;;5056819;28;20020;-76
2022/03/26 10:48:10;;;;;;;6.80;3.00;;;20.50;82.90;;;;;;5056166;28;20056;-76
2022/03/26 10:50:36;;;;;;;5.22;2.00;;;20.60;84.40;;;;;;5053848;28;20522;-75
2022/03/26 10:53:10;;;;;;;11.07;3.25;;;20.50;81.00;;;;;;5036545;28;20039;-83
2022/03/26 10:55:43;;;;;;;7.03;3.58;;;20.80;80.80;;;;;;5036312;28;20108;-75
2022/03/26 10:58:09;;;;;;;12.38;3.60;;;20.60;81.50;;;;;;5036495;28;20060;-76
2022/03/26 11:00:35;;;;;;;8.00;4.53;;;20.90;81.80;;;;;;5052954;28;20052;-83
2022/03/26 11:03:01;;;;;;;10.00;3.88;;;21.00;81.80;;;;;;5056554;28;20071;-84
2022/03/26 11:05:29;;;;;;;18.35;4.93;;;21.10;83.00;;;;;;5056535;28;20021;-83
2022/03/26 11:07:57;;;;;;;10.95;5.80;;;20.80;82.50;;;;;;5067152;28;20059;-83
2022/03/26 11:10:25;;;;;;;9.48;3.03;;;20.70;82.10;;;;;;5056558;28;20021;-83
2022/03/26 11:12:51;;;;;;;13.35;4.15;;;20.80;81.50;;;;;;5055992;28;20071;-74
2022/03/26 11:15:26;;;;;;;9.65;4.35;;;20.80;81.90;;;;;;5056373;28;20017;-74
2022/03/26 11:18:10;;;;;;;9.70;3.25;;;20.70;79.80;;;;;;5055843;28;20021;-81
2022/03/26 11:21:00;;;;;;;7.07;4.18;;;20.90;81.00;;;;;;5056138;28;20029;-83
2022/03/26 11:23:46;;;;;;;6.50;3.17;;;21.00;79.00;;;;;;5056495;28;20028;-75
2022/03/26 11:26:28;;;;;;;7.68;3.38;;;21.30;80.50;;;;;;5056664;28;20021;-73
2022/03/26 11:28:53;;;;;;;9.05;4.35;;;21.60;81.40;;;;;;5058083;28;20384;-74
2022/03/26 11:31:43;;;;;;;7.20;3.10;;;21.50;78.60;;;;;;5055935;28;20028;-74
2022/03/26 11:34:10;;;;;;;6.63;3.65;;;21.60;79.30;;;;;;5056268;28;20032;-74
2022/03/26 11:36:36;;;;;;;26.63;5.63;;;21.90;81.90;;;;;;5055939;28;20051;-84
2022/03/26 11:39:08;;;;;;;9.98;4.68;;;22.00;78.40;;;;;;5055890;28;20021;-82
2022/03/26 11:41:35;;;;;;;6.05;3.88;;;22.00;78.00;;;;;;5055559;28;20480;-74
2022/03/26 11:44:03;;;;;;;16.67;4.55;;;21.90;78.30;;;;;;5055283;28;20065;-75
2022/03/26 11:52:16;;;;;;;9.25;4.60;;;22.30;76.60;;;;;;5054459;28;20040;-78
2022/03/26 11:54:42;;;;;;;14.48;4.70;;;22.30;76.60;;;;;;5054967;28;20480;-74
2022/03/26 11:57:17;;;;;;;12.48;4.00;;;22.30;76.00;;;;;;5055371;28;20103;-74
2022/03/26 11:59:42;;;;;;;7.90;2.33;;;22.30;76.50;;;;;;5054814;28;20472;-75
2022/03/26 12:02:28;;;;;;;3.05;2.47;;;22.20;77.10;;;;;;5055285;28;20105;-83
2022/03/26 12:04:59;;;;;;;3.53;2.22;;;22.40;76.80;;;;;;5054108;28;20017;-82
2022/03/26 12:07:29;;;;;;;9.30;4.03;;;22.40;76.80;;;;;;5055590;28;20029;-74
2022/03/26 12:10:10;;;;;;;7.47;2.90;;;22.30;75.50;;;;;;5054441;28;20020;-75
2022/03/26 12:13:08;;;;;;;8.02;3.33;;;22.50;76.50;;;;;;5055051;28;20491;-75
2022/03/26 12:15:35;;;;;;;10.40;3.53;;;22.60;76.70;;;;;;5053980;28;20098;-83
2022/03/26 12:18:09;;;;;;;8.85;2.17;;;22.60;76.90;;;;;;5056017;28;20029;-74
2022/03/26 12:20:47;;;;;;;9.20;3.58;;;22.70;76.80;;;;;;5073829;28;20055;-74
2022/03/26 12:23:15;;;;;;;6.20;3.40;;;22.70;76.70;;;;;;5067796;28;20058;-75
2022/03/26 12:25:49;;;;;;;16.52;4.85;;;22.70;75.10;;;;;;5054660;28;20021;-75
2022/03/26 12:28:17;;;;;;;8.00;3.00;;;22.80;75.40;;;;;;5054724;28;20056;-83
2022/03/26 12:30:48;;;;;;;8.73;2.95;;;22.90;74.10;;;;;;5054917;28;20021;-84
2022/03/26 12:33:14;;;;;;;5.68;2.90;;;22.90;73.50;;;;;;5054840;28;20041;-75
2022/03/26 12:35:42;;;;;;;12.95;2.75;;;23.00;75.30;;;;;;5053578;28;20488;-83
2022/03/26 12:38:08;;;;;;;13.48;4.75;;;23.00;75.40;;;;;;5054445;28;20025;-74
2022/03/26 12:40:34;;;;;;;9.07;2.65;;;23.00;73.50;;;;;;5054462;28;20040;-83
2022/03/26 12:43:00;;;;;;;4.03;3.65;;;22.90;74.70;;;;;;5054725;28;20017;-84
2022/03/26 12:45:31;;;;;;;20.20;3.92;;;23.00;74.80;;;;;;5054749;28;20056;-75
2022/03/26 12:47:57;;;;;;;6.75;3.47;;;23.20;76.40;;;;;;5054195;28;20033;-84
2022/03/26 12:50:23;;;;;;;3.92;1.90;;;23.20;73.40;;;;;;5053593;28;20033;-75
2022/03/26 12:52:49;;;;;;;5.85;3.35;;;23.30;74.00;;;;;;5054157;28;20032;-75
2022/03/26 12:55:16;;;;;;;10.13;3.67;;;23.40;73.60;;;;;;5056820;28;20079;-85
2022/03/26 13:00:29;;;;;;;26.10;3.38;;;23.40;72.40;;;;;;5054394;28;20094;-75